Time;durP1;ratioP1;P1;durP2;ratioP2;P2;SDS_P1;SDS_P2;PMS_P1;PMS_P2;Temp;Humidity;BMP_temperature;BMP_pressure;BME280_temperature;BME280_humidity;BME280_pressure;Samples;Min_cycle;Max_cycle;Signal;HPM_P1;HPM_P2
2023/07/07 00:00:48;;;;;;;6.43;4.55;;;;;;;;;;5013834;28;20049;-76
2023/07/07 00:03:14;;;;;;;7.63;4.32;;;;;;;;;;5013430;28;20056;-76
2023/07/07 00:05:43;;;;;;;7.72;4.80;;;;;;;;;;5013360;28;20053;-76
2023/07/07 00:08:10;;;;;;;8.20;4.90;;;;;;;;;;5013487;28;20041;-76
2023/07/07 00:10:36;;;;;;;7.68;5.05;;;;;;;;;;5013502;28;20046;-76
2023/07/07 00:13:02;;;;;;;9.23;5.63;;;;;;;;;;5013765;28;20095;-76
2023/07/07 00:15:28;;;;;;;9.18;5.28;;;;;;;;;;5013450;28;20045;-76
2023/07/07 00:17:54;;;;;;;10.35;5.63;;;;;;;;;;5012135;28;20049;-77
2023/07/07 00:20:21;;;;;;;10.65;5.28;;;;;;;;;;5013268;28;20053;-76
2023/07/07 00:22:48;;;;;;;11.38;6.28;;;;;;;;;;5013373;28;20420;-76
2023/07/07 00:25:14;;;;;;;9.45;5.80;;;;;;;;;;5013245;28;20075;-76
2023/07/07 00:27:40;;;;;;;9.18;5.57;;;;;;;;;;5012790;28;20065;-76
2023/07/07 00:30:07;;;;;;;8.00;5.07;;;;;;;;;;5012704;28;20479;-76
2023/07/07 00:32:33;;;;;;;8.30;5.45;;;;;;;;;;5012061;28;20499;-77
2023/07/07 00:34:59;;;;;;;6.68;4.60;;;;;;;;;;5011952;28;20384;-76
2023/07/07 00:37:26;;;;;;;7.15;5.00;;;;;;;;;;5013414;28;20089;-76
2023/07/07 00:39:52;;;;;;;8.73;4.80;;;;;;;;;;5013612;28;20049;-76
2023/07/07 00:42:18;;;;;;;7.43;4.90;;;;;;;;;;5011649;28;20058;-77
2023/07/07 00:45:16;;;;;;;7.25;5.22;;;;;;;;;;5016000;28;20132;-77
2023/07/07 00:47:48;;;;;;;6.05;4.50;;;;;;;;;;5015723;28;20508;-77
2023/07/07 00:50:15;;;;;;;8.25;4.72;;;;;;;;;;5017143;28;20081;-78
2023/07/07 00:52:43;;;;;;;7.32;4.88;;;;;;;;;;5016729;28;20057;-77
2023/07/07 00:55:11;;;;;;;7.63;5.07;;;;;;;;;;5016626;28;20050;-76
2023/07/07 00:57:37;;;;;;;6.63;5.40;;;;;;;;;;5016849;28;20052;-77
2023/07/07 01:00:03;;;;;;;6.55;5.03;;;;;;;;;;5016598;28;20534;-77
2023/07/07 01:02:29;;;;;;;6.30;4.80;;;;;;;;;;5016976;28;20053;-77
2023/07/07 01:04:59;;;;;;;7.60;5.10;;;;;;;;;;5016834;28;20477;-77
2023/07/07 01:07:28;;;;;;;6.35;4.80;;;;;;;;;;5016623;28;20484;-77
2023/07/07 01:09:54;;;;;;;6.95;4.30;;;;;;;;;;5016511;28;20091;-77
2023/07/07 01:12:20;;;;;;;6.55;4.80;;;;;;;;;;5016452;28;20131;-77
2023/07/07 01:14:48;;;;;;;6.07;4.97;;;;;;;;;;5016917;28;20057;-77
2023/07/07 01:17:22;;;;;;;7.13;4.60;;;;;;;;;;5016477;28;20049;-77
2023/07/07 01:19:58;;;;;;;7.38;4.90;;;;;;;;;;5017051;28;20096;-76
2023/07/07 01:22:24;;;;;;;5.63;4.18;;;;;;;;;;5016233;28;20053;-77
2023/07/07 01:25:10;;;;;;;6.60;4.50;;;;;;;;;;5016728;28;20045;-77
2023/07/07 01:27:36;;;;;;;5.90;4.03;;;;;;;;;;5015730;28;20069;-76
2023/07/07 01:30:15;;;;;;;5.95;4.45;;;;;;;;;;5016498;28;20381;-76
2023/07/07 01:32:41;;;;;;;5.50;4.10;;;;;;;;;;5016321;28;20042;-76
2023/07/07 01:35:15;;;;;;;6.90;4.70;;;;;;;;;;5016058;28;20069;-76
2023/07/07 01:37:41;;;;;;;9.07;4.82;;;;;;;;;;5016356;28;20042;-76
2023/07/07 01:40:08;;;;;;;7.25;4.60;;;;;;;;;;5016167;28;20489;-76
2023/07/07 01:42:39;;;;;;;6.90;4.90;;;;;;;;;;5016223;28;20046;-76
2023/07/07 01:45:13;;;;;;;7.25;4.78;;;;;;;;;;5016232;28;20042;-77
2023/07/07 01:47:39;;;;;;;7.70;4.30;;;;;;;;;;5016149;28;20050;-76
2023/07/07 01:50:14;;;;;;;8.25;4.88;;;;;;;;;;5016063;28;20486;-77
2023/07/07 01:52:43;;;;;;;7.10;4.50;;;;;;;;;;5015358;28;20462;-77
2023/07/07 01:55:13;;;;;;;7.53;4.53;;;;;;;;;;5015086;28;20042;-76
2023/07/07 01:57:41;;;;;;;7.07;4.85;;;;;;;;;;5015699;28;20115;-76
2023/07/07 02:00:08;;;;;;;6.68;5.05;;;;;;;;;;5015541;28;20093;-76
2023/07/07 02:02:34;;;;;;;7.70;4.93;;;;;;;;;;5015792;28;20046;-76
2023/07/07 02:05:00;;;;;;;8.63;4.70;;;;;;;;;;5015716;28;20129;-76
2023/07/07 02:07:26;;;;;;;10.82;4.40;;;;;;;;;;4997758;28;20057;-76
2023/07/07 02:09:52;;;;;;;6.20;4.50;;;;;;;;;;5015820;28;20124;-76
2023/07/07 02:12:18;;;;;;;6.38;4.97;;;;;;;;;;5015532;28;20042;-76
2023/07/07 02:14:44;;;;;;;7.57;4.75;;;;;;;;;;5016125;28;20045;-76
2023/07/07 02:17:15;;;;;;;6.72;4.45;;;;;;;;;;5015326;28;20045;-76
2023/07/07 02:19:41;;;;;;;7.82;4.70;;;;;;;;;;5015500;28;20128;-76
2023/07/07 02:22:07;;;;;;;6.47;4.88;;;;;;;;;;5015169;28;20084;-76
2023/07/07 02:24:33;;;;;;;6.28;4.50;;;;;;;;;;5015162;28;20049;-76
2023/07/07 02:26:59;;;;;;;9.20;5.03;;;;;;;;;;5014819;28;20057;-76
2023/07/07 02:29:25;;;;;;;6.10;4.50;;;;;;;;;;5015659;28;20097;-76
2023/07/07 02:31:51;;;;;;;5.75;4.55;;;;;;;;;;5014640;28;20046;-76
2023/07/07 02:34:17;;;;;;;6.13;4.72;;;;;;;;;;5015432;28;20050;-76
2023/07/07 02:36:43;;;;;;;7.40;5.10;;;;;;;;;;5014921;28;20042;-77
2023/07/07 02:39:10;;;;;;;8.30;5.13;;;;;;;;;;5014668;28;20396;-76
2023/07/07 02:41:36;;;;;;;7.25;4.88;;;;;;;;;;5014736;28;20137;-76
2023/07/07 02:44:02;;;;;;;7.63;5.15;;;;;;;;;;5015454;28;20041;-76
2023/07/07 02:46:28;;;;;;;7.70;4.72;;;;;;;;;;5014767;28;20042;-76
2023/07/07 02:48:54;;;;;;;5.68;4.68;;;;;;;;;;5015158;28;20080;-76
2023/07/07 02:51:20;;;;;;;7.60;5.10;;;;;;;;;;5014913;28;20046;-76
2023/07/07 02:53:46;;;;;;;7.28;5.30;;;;;;;;;;5014608;28;20045;-76
2023/07/07 02:56:12;;;;;;;6.60;4.90;;;;;;;;;;5014967;28;20046;-76
2023/07/07 02:58:38;;;;;;;7.75;5.63;;;;;;;;;;5014446;28;20104;-76
2023/07/07 03:01:09;;;;;;;9.00;5.90;;;;;;;;;;5014004;28;20058;-76
2023/07/07 03:03:35;;;;;;;6.88;5.32;;;;;;;;;;5013977;28;20176;-76
2023/07/07 03:06:05;;;;;;;8.75;6.20;;;;;;;;;;5013630;28;20041;-76
2023/07/07 03:08:31;;;;;;;9.25;5.90;;;;;;;;;;5014128;28;20077;-76
2023/07/07 03:10:57;;;;;;;9.05;6.05;;;;;;;;;;5013821;28;20400;-76
2023/07/07 03:13:23;;;;;;;8.43;6.63;;;;;;;;;;5014390;28;20506;-76
2023/07/07 03:15:50;;;;;;;7.43;5.40;;;;;;;;;;5021974;28;20078;-76
2023/07/07 03:18:16;;;;;;;8.10;6.07;;;;;;;;;;5034117;28;20096;-76
2023/07/07 03:20:48;;;;;;;6.70;5.22;;;;;;;;;;5033669;28;20046;-76
2023/07/07 03:23:16;;;;;;;10.30;5.72;;;;;;;;;;5033322;28;20057;-76
2023/07/07 03:25:43;;;;;;;9.50;6.32;;;;;;;;;;5033890;28;20049;-76
2023/07/07 03:28:09;;;;;;;8.10;6.10;;;;;;;;;;5038878;28;20064;-76
2023/07/07 03:30:35;;;;;;;10.02;6.63;;;;;;;;;;5038186;28;20071;-76
2023/07/07 03:33:01;;;;;;;8.60;6.30;;;;;;;;;;5037052;28;20196;-76
2023/07/07 03:35:28;;;;;;;10.55;6.30;;;;;;;;;;5033814;28;20049;-76
2023/07/07 03:37:54;;;;;;;8.00;5.82;;;;;;;;;;5033735;28;20048;-76
2023/07/07 03:40:20;;;;;;;6.65;4.80;;;;;;;;;;5033477;28;20567;-76
2023/07/07 03:42:46;;;;;;;6.75;4.82;;;;;;;;;;5033641;28;20091;-77
2023/07/07 03:45:13;;;;;;;9.00;5.80;;;;;;;;;;5032469;28;20064;-77
2023/07/07 03:47:39;;;;;;;10.88;5.90;;;;;;;;;;5033235;28;20045;-76
2023/07/07 03:50:07;;;;;;;8.60;5.38;;;;;;;;;;5031814;28;20446;-76
2023/07/07 03:52:34;;;;;;;8.40;5.90;;;;;;;;;;5033401;28;20057;-77
2023/07/07 03:55:00;;;;;;;8.48;5.68;;;;;;;;;;5032941;28;20053;-76
2023/07/07 03:57:26;;;;;;;7.57;5.90;;;;;;;;;;5033571;28;20045;-76
2023/07/07 03:59:52;;;;;;;8.38;5.70;;;;;;;;;;5033730;28;20045;-76
2023/07/07 04:02:18;;;;;;;10.60;6.18;;;;;;;;;;5032753;28;20053;-76
2023/07/07 04:04:44;;;;;;;7.80;6.05;;;;;;;;;;5033311;28;20049;-76
2023/07/07 04:07:11;;;;;;;7.60;5.43;;;;;;;;;;5032982;28;20057;-76
2023/07/07 04:09:37;;;;;;;9.20;5.88;;;;;;;;;;5033411;28;20041;-76
2023/07/07 04:12:03;;;;;;;7.47;5.85;;;;;;;;;;5032959;28;20044;-76
2023/07/07 04:14:29;;;;;;;8.00;5.70;;;;;;;;;;5033631;28;20125;-76
2023/07/07 04:16:55;;;;;;;8.02;5.82;;;;;;;;;;5015943;28;20080;-76
2023/07/07 04:19:22;;;;;;;7.68;5.85;;;;;;;;;;5013168;28;20054;-76
2023/07/07 04:21:48;;;;;;;7.90;5.40;;;;;;;;;;5013667;28;20460;-76
2023/07/07 04:24:14;;;;;;;7.68;5.20;;;;;;;;;;5013420;28;20496;-76
2023/07/07 04:26:40;;;;;;;8.38;5.35;;;;;;;;;;5012950;28;20081;-76
2023/07/07 04:29:06;;;;;;;6.65;5.32;;;;;;;;;;5012804;28;20111;-76
2023/07/07 04:31:32;;;;;;;7.78;5.57;;;;;;;;;;5013094;28;20052;-76
2023/07/07 04:33:58;;;;;;;6.03;4.90;;;;;;;;;;5013314;28;20053;-76
2023/07/07 04:36:24;;;;;;;6.55;5.38;;;;;;;;;;5011804;28;20060;-77
2023/07/07 04:38:50;;;;;;;7.32;5.68;;;;;;;;;;5012161;28;20084;-77
2023/07/07 04:41:16;;;;;;;9.13;6.88;;;;;;;;;;5013199;28;20053;-77
2023/07/07 04:43:44;;;;;;;10.13;6.72;;;;;;;;;;5013312;28;20046;-76
2023/07/07 04:46:11;;;;;;;9.45;7.18;;;;;;;;;;5013195;28;20042;-76
2023/07/07 04:48:37;;;;;;;10.73;8.02;;;;;;;;;;5013262;28;20116;-76
2023/07/07 04:51:07;;;;;;;10.90;7.18;;;;;;;;;;5012839;28;20049;-76
2023/07/07 04:53:35;;;;;;;9.65;7.35;;;;;;;;;;5013547;28;20045;-76
2023/07/07 04:56:02;;;;;;;10.55;7.47;;;;;;;;;;5012926;28;20133;-76
2023/07/07 04:58:28;;;;;;;10.90;7.78;;;;;;;;;;5013662;28;20073;-76
2023/07/07 05:01:15;;;;;;;12.88;7.68;;;;;;;;;;5013216;28;20161;-76
2023/07/07 05:03:42;;;;;;;14.02;8.00;;;;;;;;;;5012981;28;20045;-77
2023/07/07 05:06:08;;;;;;;12.15;8.32;;;;;;;;;;5012613;28;20341;-77
2023/07/07 05:08:35;;;;;;;17.00;9.18;;;;;;;;;;5013084;28;20046;-76
2023/07/07 05:11:02;;;;;;;12.05;8.70;;;;;;;;;;5012754;28;20571;-76
2023/07/07 05:13:28;;;;;;;12.18;8.23;;;;;;;;;;5013240;28;20050;-76
2023/07/07 05:16:01;;;;;;;11.38;9.43;;;;;;;;;;5021115;28;20071;-76
2023/07/07 05:18:27;;;;;;;15.27;9.18;;;;;;;;;;5032484;28;20049;-76
2023/07/07 05:20:53;;;;;;;12.60;8.77;;;;;;;;;;5032318;28;20076;-77
2023/07/07 05:23:19;;;;;;;11.82;8.50;;;;;;;;;;5032768;28;20056;-77
2023/07/07 05:25:46;;;;;;;16.17;10.02;;;;;;;;;;5031928;28;20045;-77
2023/07/07 05:28:12;;;;;;;13.25;9.15;;;;;;;;;;5032841;28;20480;-77
2023/07/07 05:30:41;;;;;;;16.67;10.55;;;;;;;;;;5034167;28;20120;-77
2023/07/07 05:33:08;;;;;;;14.85;10.02;;;;;;;;;;5035848;28;20049;-77
2023/07/07 05:35:34;;;;;;;12.07;9.80;;;;;;;;;;5034667;28;20046;-77
2023/07/07 05:38:00;;;;;;;12.95;9.80;;;;;;;;;;5036057;28;20073;-77
2023/07/07 05:40:29;;;;;;;15.30;9.48;;;;;;;;;;5035809;28;20049;-77
2023/07/07 05:42:55;;;;;;;11.57;9.10;;;;;;;;;;5035589;28;20080;-77
2023/07/07 05:45:24;;;;;;;11.85;8.75;;;;;;;;;;5034143;28;20144;-77
2023/07/07 05:47:50;;;;;;;15.32;8.65;;;;;;;;;;5035809;28;20045;-77
2023/07/07 05:50:16;;;;;;;12.23;9.02;;;;;;;;;;5035652;28;20037;-77
2023/07/07 05:52:42;;;;;;;17.25;9.30;;;;;;;;;;5036100;28;20091;-77
2023/07/07 05:55:18;;;;;;;12.23;9.00;;;;;;;;;;5035161;28;20384;-77
2023/07/07 05:57:44;;;;;;;10.38;8.65;;;;;;;;;;5035578;28;20072;-78
2023/07/07 06:00:13;;;;;;;10.57;8.18;;;;;;;;;;5034076;28;20049;-78
2023/07/07 06:02:39;;;;;;;12.88;8.32;;;;;;;;;;5034183;28;20434;-78
2023/07/07 06:05:05;;;;;;;15.98;9.02;;;;;;;;;;5035331;28;20041;-78
2023/07/07 06:07:32;;;;;;;10.20;8.25;;;;;;;;;;5035189;28;20052;-78
2023/07/07 06:09:58;;;;;;;9.80;7.78;;;;;;;;;;5034996;28;20049;-78
2023/07/07 06:12:24;;;;;;;11.13;8.50;;;;;;;;;;5034908;28;20546;-78
2023/07/07 06:14:50;;;;;;;11.48;7.93;;;;;;;;;;5033543;28;20583;-78
2023/07/07 06:17:16;;;;;;;12.10;7.32;;;;;;;;;;5035225;28;20550;-78
2023/07/07 06:19:42;;;;;;;11.25;7.72;;;;;;;;;;5035535;28;20435;-78
2023/07/07 06:22:08;;;;;;;9.20;7.30;;;;;;;;;;5033210;28;20107;-78
2023/07/07 06:24:35;;;;;;;10.18;7.22;;;;;;;;;;5035036;28;20131;-78
2023/07/07 06:27:01;;;;;;;11.32;7.40;;;;;;;;;;5033117;28;20045;-78
2023/07/07 06:29:27;;;;;;;7.63;6.20;;;;;;;;;;5034646;28;20049;-77
2023/07/07 06:31:53;;;;;;;6.75;6.05;;;;;;;;;;5034602;28;20065;-77
2023/07/07 06:34:19;;;;;;;8.25;6.10;;;;;;;;;;5034793;28;20052;-77
2023/07/07 06:36:45;;;;;;;9.45;6.50;;;;;;;;;;5034536;28;20041;-77
2023/07/07 06:39:11;;;;;;;9.98;6.20;;;;;;;;;;5034622;28;20084;-77
2023/07/07 06:41:37;;;;;;;10.68;5.90;;;;;;;;;;5033411;28;20499;-77
2023/07/07 06:44:03;;;;;;;10.27;6.35;;;;;;;;;;5034815;28;20542;-77
2023/07/07 06:46:31;;;;;;;7.63;5.60;;;;;;;;;;5034319;28;20053;-78
2023/07/07 06:48:58;;;;;;;9.38;5.90;;;;;;;;;;5032970;28;20128;-78
2023/07/07 06:51:24;;;;;;;7.75;5.65;;;;;;;;;;5034196;28;20061;-78
2023/07/07 06:53:50;;;;;;;8.95;5.75;;;;;;;;;;5034776;28;20042;-78
2023/07/07 06:56:16;;;;;;;8.68;5.50;;;;;;;;;;5034111;28;20171;-77
2023/07/07 06:58:42;;;;;;;7.97;5.95;;;;;;;;;;5037250;28;20144;-78
2023/07/07 07:01:11;;;;;;;9.15;5.55;;;;;;;;;;5039349;28;20041;-78
2023/07/07 07:03:37;;;;;;;6.88;5.13;;;;;;;;;;5039387;28;20049;-78
2023/07/07 07:06:03;;;;;;;11.57;5.93;;;;;;;;;;5036304;28;20082;-77
2023/07/07 07:08:29;;;;;;;7.13;4.90;;;;;;;;;;5034209;28;20041;-77
2023/07/07 07:10:56;;;;;;;6.82;4.65;;;;;;;;;;5032470;28;20067;-78
2023/07/07 07:13:22;;;;;;;9.60;4.88;;;;;;;;;;5034375;28;20049;-78
2023/07/07 07:15:48;;;;;;;7.45;4.28;;;;;;;;;;5032916;28;20472;-78
2023/07/07 07:18:14;;;;;;;7.80;4.63;;;;;;;;;;5033884;28;20053;-78
2023/07/07 07:20:40;;;;;;;5.47;4.40;;;;;;;;;;5033653;28;20056;-77
2023/07/07 07:23:07;;;;;;;7.07;5.07;;;;;;;;;;5034078;28;20050;-77
2023/07/07 07:25:33;;;;;;;7.45;5.20;;;;;;;;;;5033607;28;20054;-77
2023/07/07 07:27:59;;;;;;;6.90;4.53;;;;;;;;;;5033717;28;20057;-77
2023/07/07 07:30:25;;;;;;;6.10;4.22;;;;;;;;;;5032370;28;20056;-78
2023/07/07 07:32:51;;;;;;;7.78;4.45;;;;;;;;;;5033340;28;20381;-78
2023/07/07 07:35:17;;;;;;;6.53;4.55;;;;;;;;;;5032179;28;20061;-78
2023/07/07 07:37:43;;;;;;;6.82;4.55;;;;;;;;;;5033835;28;20049;-78
2023/07/07 07:40:09;;;;;;;7.55;4.60;;;;;;;;;;5033138;28;20076;-78
2023/07/07 07:42:35;;;;;;;8.40;4.70;;;;;;;;;;5033270;28;20137;-77
2023/07/07 07:45:01;;;;;;;5.45;4.20;;;;;;;;;;5033714;28;20056;-77
2023/07/07 07:47:27;;;;;;;6.38;4.20;;;;;;;;;;5033280;28;20129;-77
2023/07/07 07:49:53;;;;;;;5.95;4.00;;;;;;;;;;5033417;28;20073;-77
2023/07/07 07:52:19;;;;;;;5.75;3.88;;;;;;;;;;5032670;28;20041;-77
2023/07/07 07:54:45;;;;;;;7.00;3.90;;;;;;;;;;5028656;28;20089;-77
2023/07/07 07:57:12;;;;;;;4.63;3.95;;;;;;;;;;5013082;28;20129;-77
2023/07/07 07:59:38;;;;;;;6.90;4.28;;;;;;;;;;5014045;28;20108;-77
2023/07/07 08:02:04;;;;;;;5.97;4.18;;;;;;;;;;5013505;28;20053;-77
2023/07/07 08:04:30;;;;;;;6.78;4.38;;;;;;;;;;5013660;28;20053;-77
2023/07/07 08:06:56;;;;;;;5.70;4.55;;;;;;;;;;5013343;28;20096;-77
2023/07/07 08:09:22;;;;;;;8.15;4.93;;;;;;;;;;5013207;28;20165;-77
2023/07/07 08:11:48;;;;;;;7.75;4.38;;;;;;;;;;5013325;28;20436;-77
2023/07/07 08:14:19;;;;;;;7.88;4.55;;;;;;;;;;5013901;28;20054;-78
2023/07/07 08:16:45;;;;;;;6.45;4.28;;;;;;;;;;5013286;28;20045;-78
2023/07/07 08:19:11;;;;;;;8.45;4.50;;;;;;;;;;5013463;28;20038;-77
2023/07/07 08:21:38;;;;;;;7.25;4.45;;;;;;;;;;5013179;28;20492;-78
2023/07/07 08:24:05;;;;;;;6.70;4.60;;;;;;;;;;5012278;28;20050;-78
2023/07/07 08:26:31;;;;;;;6.80;4.32;;;;;;;;;;5012968;28;20054;-78
2023/07/07 08:28:57;;;;;;;6.68;3.90;;;;;;;;;;5013341;28;20050;-78
2023/07/07 08:31:23;;;;;;;6.38;4.30;;;;;;;;;;5013058;28;20112;-78
2023/07/07 08:33:50;;;;;;;7.13;3.95;;;;;;;;;;5012153;28;20053;-78
2023/07/07 08:36:16;;;;;;;6.80;4.05;;;;;;;;;;5012959;28;20550;-77
2023/07/07 08:38:42;;;;;;;4.97;3.78;;;;;;;;;;5013265;28;20069;-77
2023/07/07 08:41:08;;;;;;;7.63;3.97;;;;;;;;;;5013259;28;20046;-77
2023/07/07 08:43:34;;;;;;;5.32;3.85;;;;;;;;;;5013310;28;20046;-77
2023/07/07 08:46:07;;;;;;;5.10;3.90;;;;;;;;;;5012773;28;20396;-77
2023/07/07 08:48:56;;;;;;;5.25;4.00;;;;;;;;;;5012745;28;20452;-77
2023/07/07 08:51:28;;;;;;;4.40;4.00;;;;;;;;;;5012977;28;20156;-77
2023/07/07 08:53:57;;;;;;;5.15;3.90;;;;;;;;;;5013576;28;20068;-77
2023/07/07 08:56:28;;;;;;;5.93;3.72;;;;;;;;;;5013184;28;20050;-77
2023/07/07 08:59:05;;;;;;;8.68;3.85;;;;;;;;;;5012875;28;20388;-78
2023/07/07 09:01:40;;;;;;;6.22;3.58;;;;;;;;;;5011599;28;20054;-78
2023/07/07 09:04:16;;;;;;;5.10;3.70;;;;;;;;;;5013201;28;20133;-78
2023/07/07 09:06:55;;;;;;;4.93;3.40;;;;;;;;;;5016394;28;20042;-77
2023/07/07 09:09:31;;;;;;;5.43;3.25;;;;;;;;;;5015273;28;20056;-78
2023/07/07 09:12:06;;;;;;;5.05;3.60;;;;;;;;;;5016028;28;20045;-78
2023/07/07 09:14:33;;;;;;;5.80;3.70;;;;;;;;;;5016399;28;20049;-78
2023/07/07 09:17:00;;;;;;;6.32;3.75;;;;;;;;;;5016143;28;20069;-78
2023/07/07 09:19:30;;;;;;;5.20;3.45;;;;;;;;;;5016270;28;20567;-77
2023/07/07 09:22:03;;;;;;;6.18;3.65;;;;;;;;;;5016300;28;20133;-78
2023/07/07 09:24:52;;;;;;;5.95;3.40;;;;;;;;;;5015940;28;20147;-77
2023/07/07 09:27:24;;;;;;;5.22;3.45;;;;;;;;;;5012562;28;20151;-78
2023/07/07 09:29:52;;;;;;;6.47;3.40;;;;;;;;;;5016383;28;20041;-77
2023/07/07 09:32:20;;;;;;;7.22;3.13;;;;;;;;;;5015672;28;20045;-77
2023/07/07 09:34:46;;;;;;;5.80;3.67;;;;;;;;;;5016298;28;20041;-77
2023/07/07 09:37:19;;;;;;;4.20;3.10;;;;;;;;;;5016126;28;20045;-77
2023/07/07 09:39:52;;;;;;;5.22;3.45;;;;;;;;;;5016374;28;20050;-77
2023/07/07 09:42:18;;;;;;;4.60;3.10;;;;;;;;;;5015961;28;20038;-77
2023/07/07 09:44:47;;;;;;;5.75;3.60;;;;;;;;;;5014806;28;20085;-78
2023/07/07 09:47:17;;;;;;;5.63;3.22;;;;;;;;;;5016338;28;20038;-77
2023/07/07 09:49:46;;;;;;;4.03;3.20;;;;;;;;;;5016547;28;20053;-77
2023/07/07 09:52:28;;;;;;;4.60;2.95;;;;;;;;;;5015774;28;20054;-77
2023/07/07 09:54:55;;;;;;;5.03;3.05;;;;;;;;;;5022259;28;20151;-77
2023/07/07 09:57:25;;;;;;;5.97;3.10;;;;;;;;;;5035408;28;20053;-77
2023/07/07 09:59:52;;;;;;;5.90;3.10;;;;;;;;;;5035585;28;20045;-77
2023/07/07 10:02:19;;;;;;;4.55;2.83;;;;;;;;;;5034898;28;20067;-77
2023/07/07 10:04:49;;;;;;;7.10;2.80;;;;;;;;;;5035192;28;20136;-77
2023/07/07 10:07:16;;;;;;;4.35;2.72;;;;;;;;;;5035472;28;20134;-77
2023/07/07 10:09:43;;;;;;;4.03;3.00;;;;;;;;;;5035452;28;20038;-77
2023/07/07 10:12:13;;;;;;;5.72;3.38;;;;;;;;;;5035525;28;20046;-77
2023/07/07 10:14:39;;;;;;;4.47;2.97;;;;;;;;;;5035235;28;20388;-77
2023/07/07 10:17:08;;;;;;;5.85;3.05;;;;;;;;;;5034498;28;20056;-78
2023/07/07 10:19:40;;;;;;;4.00;2.78;;;;;;;;;;5035654;28;20152;-78
2023/07/07 10:22:06;;;;;;;4.13;2.80;;;;;;;;;;5033947;28;20045;-78
2023/07/07 10:24:32;;;;;;;3.88;2.95;;;;;;;;;;5035143;28;20053;-79
2023/07/07 10:26:59;;;;;;;4.05;2.58;;;;;;;;;;5034581;28;20064;-78
2023/07/07 10:29:29;;;;;;;3.58;2.90;;;;;;;;;;5035257;28;20060;-78
2023/07/07 10:31:55;;;;;;;4.07;2.85;;;;;;;;;;5034758;28;20053;-77
2023/07/07 10:34:26;;;;;;;4.97;3.10;;;;;;;;;;5037614;28;20084;-77
2023/07/07 10:36:53;;;;;;;3.90;3.13;;;;;;;;;;5040308;28;20076;-77
2023/07/07 10:39:21;;;;;;;5.28;2.80;;;;;;;;;;5039904;28;20053;-78
2023/07/07 10:41:48;;;;;;;6.32;3.30;;;;;;;;;;5035894;28;20111;-78
2023/07/07 10:44:14;;;;;;;5.38;2.90;;;;;;;;;;5035193;28;20042;-78
2023/07/07 10:46:40;;;;;;;4.20;2.80;;;;;;;;;;5034772;28;20038;-77
2023/07/07 10:49:10;;;;;;;4.20;3.00;;;;;;;;;;5035234;28;20065;-78
2023/07/07 10:51:48;;;;;;;3.80;3.13;;;;;;;;;;5034803;28;20103;-77
2023/07/07 10:54:14;;;;;;;5.50;3.28;;;;;;;;;;5032645;28;20053;-78
2023/07/07 10:56:43;;;;;;;5.40;3.00;;;;;;;;;;5014488;28;20044;-78
2023/07/07 10:59:27;;;;;;;5.10;3.03;;;;;;;;;;5013053;28;20053;-78
2023/07/07 11:01:56;;;;;;;5.60;3.03;;;;;;;;;;5014201;28;20050;-78
2023/07/07 11:04:22;;;;;;;6.90;3.10;;;;;;;;;;4997191;28;20246;-78
2023/07/07 11:06:59;;;;;;;6.20;3.97;;;;;;;;;;5014371;28;20056;-78
2023/07/07 11:09:50;;;;;;;5.55;3.15;;;;;;;;;;5013968;28;20045;-78
2023/07/07 11:12:22;;;;;;;7.78;3.25;;;;;;;;;;5014468;28;20084;-77
2023/07/07 11:14:48;;;;;;;6.25;3.03;;;;;;;;;;5014750;28;20061;-78
2023/07/07 11:17:23;;;;;;;4.05;2.88;;;;;;;;;;5014349;28;20041;-78
2023/07/07 11:19:53;;;;;;;15.50;5.57;;;;;;;;;;5014422;28;20042;-78
2023/07/07 11:22:28;;;;;;;6.88;3.00;;;;;;;;;;5014597;28;20052;-78
2023/07/07 11:25:05;;;;;;;4.10;2.75;;;;;;;;;;5014046;28;20088;-78
2023/07/07 11:27:35;;;;;;;7.40;3.40;;;;;;;;;;5012410;28;20392;-78
2023/07/07 11:30:16;;;;;;;4.18;3.00;;;;;;;;;;5014199;28;20042;-78
2023/07/07 11:32:54;;;;;;;5.63;3.38;;;;;;;;;;5014119;28;20461;-78
2023/07/07 11:35:24;;;;;;;4.55;3.00;;;;;;;;;;5012970;28;20554;-78
2023/07/07 11:38:02;;;;;;;5.07;3.17;;;;;;;;;;5014202;28;20085;-78
2023/07/07 11:40:43;;;;;;;3.75;2.95;;;;;;;;;;5013832;28;20042;-78
2023/07/07 11:43:13;;;;;;;4.28;2.80;;;;;;;;;;5014282;28;20045;-77
2023/07/07 11:45:42;;;;;;;4.93;3.03;;;;;;;;;;5013364;28;20046;-78
2023/07/07 11:48:17;;;;;;;5.57;3.20;;;;;;;;;;5013603;28;20053;-78
2023/07/07 11:50:46;;;;;;;3.70;2.92;;;;;;;;;;5013141;28;20484;-78
2023/07/07 11:53:12;;;;;;;5.78;3.00;;;;;;;;;;5012682;28;20085;-78
2023/07/07 11:56:00;;;;;;;3.92;3.05;;;;;;;;;;5013334;28;20069;-78
2023/07/07 11:58:35;;;;;;;4.07;3.10;;;;;;;;;;5013872;28;20053;-77
2023/07/07 12:01:13;;;;;;;5.07;3.53;;;;;;;;;;5013373;28;20049;-77
2023/07/07 12:03:45;;;;;;;6.38;3.05;;;;;;;;;;5013267;28;20080;-77
2023/07/07 12:06:27;;;;;;;4.72;3.00;;;;;;;;;;5013192;28;20045;-77
2023/07/07 12:09:02;;;;;;;6.20;3.15;;;;;;;;;;5013215;28;20046;-77
2023/07/07 12:11:30;;;;;;;5.45;3.22;;;;;;;;;;5013232;28;20069;-77
2023/07/07 12:13:59;;;;;;;4.78;2.90;;;;;;;;;;5013407;28;20129;-77
2023/07/07 12:16:26;;;;;;;5.45;3.15;;;;;;;;;;5013208;28;20052;-78
2023/07/07 12:19:18;;;;;;;4.70;3.00;;;;;;;;;;5013236;28;20046;-78
2023/07/07 12:21:46;;;;;;;3.70;3.10;;;;;;;;;;5012276;28;20052;-77
2023/07/07 12:24:16;;;;;;;4.10;3.17;;;;;;;;;;5013794;28;20042;-77
2023/07/07 12:26:45;;;;;;;4.88;3.13;;;;;;;;;;5012972;28;20050;-77
2023/07/07 12:29:12;;;;;;;7.20;3.10;;;;;;;;;;5013142;28;20042;-77
2023/07/07 12:31:38;;;;;;;3.95;3.10;;;;;;;;;;5013183;28;20046;-77
2023/07/07 12:34:25;;;;;;;4.65;2.90;;;;;;;;;;5013631;28;20465;-78
2023/07/07 12:36:51;;;;;;;4.38;3.33;;;;;;;;;;5012107;28;20054;-78
2023/07/07 12:39:17;;;;;;;3.85;3.22;;;;;;;;;;5015098;28;20109;-78
2023/07/07 12:41:43;;;;;;;5.85;3.33;;;;;;;;;;5016929;28;20077;-78
2023/07/07 12:44:11;;;;;;;4.90;3.00;;;;;;;;;;5017389;28;20053;-78
2023/07/07 12:46:37;;;;;;;6.78;3.47;;;;;;;;;;5016865;28;20050;-78
2023/07/07 12:49:08;;;;;;;6.05;3.47;;;;;;;;;;5017473;28;20046;-77
2023/07/07 12:51:36;;;;;;;7.13;3.17;;;;;;;;;;5016739;28;20038;-77
2023/07/07 12:54:02;;;;;;;4.68;3.00;;;;;;;;;;5016899;28;20041;-78
2023/07/07 12:56:29;;;;;;;5.10;2.88;;;;;;;;;;5017201;28;20046;-78
2023/07/07 12:58:56;;;;;;;6.40;3.25;;;;;;;;;;5015294;28;20061;-78
2023/07/07 13:01:23;;;;;;;4.38;3.13;;;;;;;;;;5016368;28;20129;-79
2023/07/07 13:04:07;;;;;;;4.32;3.08;;;;;;;;;;5017022;28;20049;-79
2023/07/07 13:06:36;;;;;;;4.57;2.97;;;;;;;;;;5016746;28;20195;-78
2023/07/07 13:09:02;;;;;;;4.68;3.20;;;;;;;;;;5016924;28;20548;-78
2023/07/07 13:11:39;;;;;;;4.00;3.00;;;;;;;;;;5014822;28;20492;-78
2023/07/07 13:14:06;;;;;;;6.00;3.22;;;;;;;;;;5016738;28;20109;-78
2023/07/07 13:16:33;;;;;;;3.97;2.95;;;;;;;;;;5028446;28;20133;-78
2023/07/07 13:18:59;;;;;;;4.70;3.13;;;;;;;;;;5036000;28;20516;-78
2023/07/07 13:21:29;;;;;;;6.10;3.28;;;;;;;;;;5036032;28;20111;-78
2023/07/07 13:23:56;;;;;;;6.00;3.40;;;;;;;;;;5036110;28;20530;-78
2023/07/07 13:26:26;;;;;;;4.13;3.22;;;;;;;;;;5035877;28;20064;-78
2023/07/07 13:28:52;;;;;;;4.80;3.30;;;;;;;;;;5036324;28;20052;-77
2023/07/07 13:31:18;;;;;;;4.53;3.30;;;;;;;;;;5035877;28;20471;-77
2023/07/07 13:33:44;;;;;;;4.25;3.05;;;;;;;;;;5036016;28;20053;-77
2023/07/07 13:36:10;;;;;;;4.22;3.35;;;;;;;;;;5035721;28;20048;-77
2023/07/07 13:38:40;;;;;;;4.72;3.17;;;;;;;;;;5036002;28;20058;-77
2023/07/07 13:41:07;;;;;;;5.32;3.40;;;;;;;;;;5035728;28;20085;-77
2023/07/07 13:43:35;;;;;;;5.88;3.35;;;;;;;;;;5035915;28;20041;-77
2023/07/07 13:46:02;;;;;;;5.00;3.40;;;;;;;;;;5035733;28;20052;-77
2023/07/07 13:48:29;;;;;;;4.68;3.38;;;;;;;;;;5035928;28;20073;-77
2023/07/07 13:50:56;;;;;;;5.95;3.42;;;;;;;;;;5033412;28;20490;-79
2023/07/07 13:53:22;;;;;;;4.88;3.33;;;;;;;;;;5035781;28;20041;-78
2023/07/07 13:55:50;;;;;;;5.68;3.50;;;;;;;;;;5035200;28;20060;-78
2023/07/07 13:58:19;;;;;;;5.88;3.50;;;;;;;;;;5035833;28;20052;-78
2023/07/07 14:00:46;;;;;;;5.68;3.20;;;;;;;;;;5034992;28;20407;-78
2023/07/07 14:03:17;;;;;;;4.10;3.25;;;;;;;;;;5035538;28;20103;-78
2023/07/07 14:05:43;;;;;;;5.13;2.88;;;;;;;;;;5033892;28;20140;-78
2023/07/07 14:08:20;;;;;;;4.25;3.22;;;;;;;;;;5035619;28;20092;-79
2023/07/07 14:10:49;;;;;;;4.65;3.13;;;;;;;;;;5034868;28;20372;-78
2023/07/07 14:13:17;;;;;;;4.50;3.25;;;;;;;;;;5035263;28;20044;-77
2023/07/07 14:15:49;;;;;;;4.13;3.15;;;;;;;;;;5034787;28;20076;-77
2023/07/07 14:18:17;;;;;;;4.65;3.42;;;;;;;;;;5035566;28;20041;-79
2023/07/07 14:20:45;;;;;;;4.35;3.53;;;;;;;;;;5036728;28;20053;-78
2023/07/07 14:23:13;;;;;;;5.07;3.25;;;;;;;;;;5039561;28;20046;-78
2023/07/07 14:25:41;;;;;;;4.60;3.35;;;;;;;;;;5040356;28;20077;-78
2023/07/07 14:28:11;;;;;;;4.72;3.30;;;;;;;;;;5038637;28;20064;-77
2023/07/07 14:30:37;;;;;;;4.63;3.00;;;;;;;;;;5035066;28;20053;-77
2023/07/07 14:33:03;;;;;;;6.78;3.25;;;;;;;;;;5035069;28;20049;-78
2023/07/07 14:35:29;;;;;;;5.28;3.45;;;;;;;;;;5035082;28;20045;-78
2023/07/07 14:37:56;;;;;;;4.75;3.10;;;;;;;;;;5034932;28;20117;-78
2023/07/07 14:40:27;;;;;;;3.75;3.13;;;;;;;;;;5034460;28;20060;-78
2023/07/07 14:42:54;;;;;;;7.05;3.30;;;;;;;;;;5034449;28;20049;-79
2023/07/07 14:45:40;;;;;;;5.38;2.97;;;;;;;;;;5034894;28;20124;-78
2023/07/07 14:48:16;;;;;;;4.68;3.65;;;;;;;;;;5035095;28;20128;-78